sensor_id;sensor_type;location;lat;lon;timestamp;temperature;humidity
5304;DHT22;2674;49.722;10.892;2023-03-12T00:00:39;-2.10;99.90
5304;DHT22;2674;49.722;10.892;2023-03-12T00:03:05;-2.10;99.90
5304;DHT22;2674;49.722;10.892;2023-03-12T00:05:31;-2.10;99.90
5304;DHT22;2674;49.722;10.892;2023-03-12T00:07:58;-2.10;99.90
5304;DHT22;2674;49.722;10.892;2023-03-12T00:10:28;-2.20;99.90
5304;DHT22;2674;49.722;10.892;2023-03-12T00:12:54;-2.20;99.90
5304;DHT22;2674;49.722;10.892;2023-03-12T00:15:20;-2.20;99.90
5304;DHT22;2674;49.722;10.892;2023-03-12T00:17:46;-2.20;99.90
5304;DHT22;2674;49.722;10.892;2023-03-12T00:20:13;-2.20;99.90
5304;DHT22;2674;49.722;10.892;2023-03-12T00:22:39;-2.20;99.90
5304;DHT22;2674;49.722;10.892;2023-03-12T00:25:06;-2.30;99.90
5304;DHT22;2674;49.722;10.892;2023-03-12T00:27:35;-2.30;99.90
5304;DHT22;2674;49.722;10.892;2023-03-12T00:30:02;-2.30;99.90
5304;DHT22;2674;49.722;10.892;2023-03-12T00:32:28;-2.30;99.90
5304;DHT22;2674;49.722;10.892;2023-03-12T00:34:54;-2.30;99.90
5304;DHT22;2674;49.722;10.892;2023-03-12T00:37:21;-2.40;99.90
5304;DHT22;2674;49.722;10.892;2023-03-12T00:39:47;-2.40;99.90
5304;DHT22;2674;49.722;10.892;2023-03-12T00:42:13;-2.40;99.90
5304;DHT22;2674;49.722;10.892;2023-03-12T00:44:39;-2.50;99.90
5304;DHT22;2674;49.722;10.892;2023-03-12T00:47:05;-2.50;99.90
5304;DHT22;2674;49.722;10.892;2023-03-12T00:49:31;-2.50;99.90
5304;DHT22;2674;49.722;10.892;2023-03-12T00:51:57;-2.60;99.90
5304;DHT22;2674;49.722;10.892;2023-03-12T00:54:23;-2.60;99.90
5304;DHT22;2674;49.722;10.892;2023-03-12T00:56:49;-2.60;99.90
5304;DHT22;2674;49.722;10.892;2023-03-12T00:59:15;-2.60;99.90
5304;DHT22;2674;49.722;10.892;2023-03-12T01:01:41;-2.60;99.90
5304;DHT22;2674;49.722;10.892;2023-03-12T01:04:07;-2.60;99.90
5304;DHT22;2674;49.722;10.892;2023-03-12T01:06:34;-2.60;99.90
5304;DHT22;2674;49.722;10.892;2023-03-12T01:09:04;-2.60;99.90
5304;DHT22;2674;49.722;10.892;2023-03-12T01:11:31;-2.60;99.90
5304;DHT22;2674;49.722;10.892;2023-03-12T01:14:01;-2.60;99.90
5304;DHT22;2674;49.722;10.892;2023-03-12T01:16:28;-2.60;99.90
5304;DHT22;2674;49.722;10.892;2023-03-12T01:18:58;-2.70;99.90
5304;DHT22;2674;49.722;10.892;2023-03-12T01:21:25;-2.70;99.90
5304;DHT22;2674;49.722;10.892;2023-03-12T01:23:52;-2.70;99.90
5304;DHT22;2674;49.722;10.892;2023-03-12T01:26:18;-2.70;99.90
5304;DHT22;2674;49.722;10.892;2023-03-12T01:28:44;-2.70;99.90
5304;DHT22;2674;49.722;10.892;2023-03-12T01:31:12;-2.70;99.90
5304;DHT22;2674;49.722;10.892;2023-03-12T01:33:39;-2.70;99.90
5304;DHT22;2674;49.722;10.892;2023-03-12T01:36:19;-2.70;99.90
5304;DHT22;2674;49.722;10.892;2023-03-12T01:38:46;-2.70;99.90
5304;DHT22;2674;49.722;10.892;2023-03-12T01:41:12;-2.70;99.90
5304;DHT22;2674;49.722;10.892;2023-03-12T01:43:39;-2.80;99.90
5304;DHT22;2674;49.722;10.892;2023-03-12T01:48:55;-2.80;99.90
5304;DHT22;2674;49.722;10.892;2023-03-12T01:51:27;-2.80;99.90
5304;DHT22;2674;49.722;10.892;2023-03-12T01:53:58;-2.80;99.90
5304;DHT22;2674;49.722;10.892;2023-03-12T01:56:28;-2.80;99.90
5304;DHT22;2674;49.722;10.892;2023-03-12T01:58:57;-2.80;99.90
5304;DHT22;2674;49.722;10.892;2023-03-12T02:01:25;-2.80;99.90
5304;DHT22;2674;49.722;10.892;2023-03-12T02:03:53;-2.80;99.90
5304;DHT22;2674;49.722;10.892;2023-03-12T02:06:26;-2.80;99.90
5304;DHT22;2674;49.722;10.892;2023-03-12T02:08:54;-2.80;99.90
5304;DHT22;2674;49.722;10.892;2023-03-12T02:11:21;-2.70;99.90
5304;DHT22;2674;49.722;10.892;2023-03-12T02:13:47;-2.80;99.90
5304;DHT22;2674;49.722;10.892;2023-03-12T02:16:13;-2.70;99.90
5304;DHT22;2674;49.722;10.892;2023-03-12T02:18:39;-2.70;99.90
5304;DHT22;2674;49.722;10.892;2023-03-12T02:23:48;-2.60;99.90
5304;DHT22;2674;49.722;10.892;2023-03-12T02:26:17;-2.60;99.90
5304;DHT22;2674;49.722;10.892;2023-03-12T02:28:44;-2.50;99.90
5304;DHT22;2674;49.722;10.892;2023-03-12T02:31:13;-2.50;99.90
5304;DHT22;2674;49.722;10.892;2023-03-12T02:33:40;-2.40;99.90
5304;DHT22;2674;49.722;10.892;2023-03-12T02:36:07;-2.40;99.90
5304;DHT22;2674;49.722;10.892;2023-03-12T02:41:23;-2.30;99.90
5304;DHT22;2674;49.722;10.892;2023-03-12T02:44:04;-2.30;99.90
5304;DHT22;2674;49.722;10.892;2023-03-12T02:46:35;-2.30;99.90
5304;DHT22;2674;49.722;10.892;2023-03-12T02:49:03;-2.20;99.90
5304;DHT22;2674;49.722;10.892;2023-03-12T02:51:29;-2.20;99.90
5304;DHT22;2674;49.722;10.892;2023-03-12T02:53:55;-2.20;99.90
5304;DHT22;2674;49.722;10.892;2023-03-12T02:56:26;-2.10;99.90
5304;DHT22;2674;49.722;10.892;2023-03-12T02:58:53;-2.10;99.90
5304;DHT22;2674;49.722;10.892;2023-03-12T03:01:19;-2.10;99.90
5304;DHT22;2674;49.722;10.892;2023-03-12T03:03:46;-2.10;99.90
5304;DHT22;2674;49.722;10.892;2023-03-12T03:06:12;-2.00;99.90
5304;DHT22;2674;49.722;10.892;2023-03-12T03:08:38;-2.00;99.90
5304;DHT22;2674;49.722;10.892;2023-03-12T03:11:05;-2.00;99.90
5304;DHT22;2674;49.722;10.892;2023-03-12T03:13:32;-2.00;99.90
5304;DHT22;2674;49.722;10.892;2023-03-12T03:15:58;-2.00;99.90
5304;DHT22;2674;49.722;10.892;2023-03-12T03:18:27;-2.00;99.90
5304;DHT22;2674;49.722;10.892;2023-03-12T03:20:58;-1.90;99.90
5304;DHT22;2674;49.722;10.892;2023-03-12T03:23:24;-1.90;99.90
5304;DHT22;2674;49.722;10.892;2023-03-12T03:25:51;-1.90;99.90
5304;DHT22;2674;49.722;10.892;2023-03-12T03:28:22;-1.90;99.90
5304;DHT22;2674;49.722;10.892;2023-03-12T03:30:50;-1.80;99.90
5304;DHT22;2674;49.722;10.892;2023-03-12T03:33:16;-1.80;99.90
5304;DHT22;2674;49.722;10.892;2023-03-12T03:35:42;-1.80;99.90
5304;DHT22;2674;49.722;10.892;2023-03-12T03:38:08;-1.80;99.90
5304;DHT22;2674;49.722;10.892;2023-03-12T03:40:34;-1.90;99.90
5304;DHT22;2674;49.722;10.892;2023-03-12T03:43:00;-1.80;99.90
5304;DHT22;2674;49.722;10.892;2023-03-12T03:45:25;-1.80;99.90
5304;DHT22;2674;49.722;10.892;2023-03-12T03:47:51;-1.80;99.90
5304;DHT22;2674;49.722;10.892;2023-03-12T03:50:18;-1.90;99.90
5304;DHT22;2674;49.722;10.892;2023-03-12T03:52:43;-1.90;99.90
5304;DHT22;2674;49.722;10.892;2023-03-12T03:55:09;-1.80;99.90
5304;DHT22;2674;49.722;10.892;2023-03-12T03:57:35;-1.80;99.90
5304;DHT22;2674;49.722;10.892;2023-03-12T04:00:01;-1.80;99.90
5304;DHT22;2674;49.722;10.892;2023-03-12T04:02:29;-1.70;99.90
5304;DHT22;2674;49.722;10.892;2023-03-12T04:04:58;-1.70;99.90
5304;DHT22;2674;49.722;10.892;2023-03-12T04:07:26;-1.70;99.90
5304;DHT22;2674;49.722;10.892;2023-03-12T04:09:53;-1.70;99.90
5304;DHT22;2674;49.722;10.892;2023-03-12T04:12:19;-1.70;99.90
5304;DHT22;2674;49.722;10.892;2023-03-12T04:14:45;-1.70;99.90
5304;DHT22;2674;49.722;10.892;2023-03-12T04:17:11;-1.70;99.90
5304;DHT22;2674;49.722;10.892;2023-03-12T04:19:37;-1.70;99.90
5304;DHT22;2674;49.722;10.892;2023-03-12T04:22:03;-1.60;99.90
5304;DHT22;2674;49.722;10.892;2023-03-12T04:24:29;-1.70;99.90
5304;DHT22;2674;49.722;10.892;2023-03-12T04:26:56;-1.60;99.90
5304;DHT22;2674;49.722;10.892;2023-03-12T04:29:23;-1.60;99.90
5304;DHT22;2674;49.722;10.892;2023-03-12T04:31:49;-1.60;99.90
5304;DHT22;2674;49.722;10.892;2023-03-12T04:34:15;-1.60;99.90
5304;DHT22;2674;49.722;10.892;2023-03-12T04:36:41;-1.70;99.90
5304;DHT22;2674;49.722;10.892;2023-03-12T04:39:06;-1.60;99.90
5304;DHT22;2674;49.722;10.892;2023-03-12T04:41:35;-1.70;99.90
5304;DHT22;2674;49.722;10.892;2023-03-12T04:44:02;-1.60;99.90
5304;DHT22;2674;49.722;10.892;2023-03-12T04:46:28;-1.60;99.90
5304;DHT22;2674;49.722;10.892;2023-03-12T04:48:54;-1.60;99.90
5304;DHT22;2674;49.722;10.892;2023-03-12T04:51:20;-1.60;99.90
5304;DHT22;2674;49.722;10.892;2023-03-12T04:53:46;-1.60;99.90
5304;DHT22;2674;49.722;10.892;2023-03-12T04:56:12;-1.60;99.90
5304;DHT22;2674;49.722;10.892;2023-03-12T04:58:38;-1.60;99.90
5304;DHT22;2674;49.722;10.892;2023-03-12T05:01:04;-1.60;99.90
5304;DHT22;2674;49.722;10.892;2023-03-12T05:03:30;-1.50;99.90
5304;DHT22;2674;49.722;10.892;2023-03-12T05:05:57;-1.50;99.90
5304;DHT22;2674;49.722;10.892;2023-03-12T05:08:23;-1.50;99.90
5304;DHT22;2674;49.722;10.892;2023-03-12T05:10:49;-1.50;99.90
5304;DHT22;2674;49.722;10.892;2023-03-12T05:13:20;-1.50;99.90
5304;DHT22;2674;49.722;10.892;2023-03-12T05:15:50;-1.60;99.90
5304;DHT22;2674;49.722;10.892;2023-03-12T05:18:16;-1.60;99.90
5304;DHT22;2674;49.722;10.892;2023-03-12T05:20:42;-1.60;99.90
5304;DHT22;2674;49.722;10.892;2023-03-12T05:23:08;-1.60;99.90
5304;DHT22;2674;49.722;10.892;2023-03-12T05:25:38;-1.60;99.90
5304;DHT22;2674;49.722;10.892;2023-03-12T05:28:04;-1.60;99.90
5304;DHT22;2674;49.722;10.892;2023-03-12T05:30:29;-1.60;99.90
5304;DHT22;2674;49.722;10.892;2023-03-12T05:32:55;-1.60;99.90
5304;DHT22;2674;49.722;10.892;2023-03-12T05:35:21;-1.60;99.90
5304;DHT22;2674;49.722;10.892;2023-03-12T05:37:47;-1.50;99.90
5304;DHT22;2674;49.722;10.892;2023-03-12T05:40:13;-1.50;99.90
5304;DHT22;2674;49.722;10.892;2023-03-12T05:42:39;-1.50;99.90
5304;DHT22;2674;49.722;10.892;2023-03-12T05:45:05;-1.40;99.90
5304;DHT22;2674;49.722;10.892;2023-03-12T05:47:31;-1.40;99.90
5304;DHT22;2674;49.722;10.892;2023-03-12T05:49:57;-1.40;99.90
5304;DHT22;2674;49.722;10.892;2023-03-12T05:52:23;-1.40;99.90
5304;DHT22;2674;49.722;10.892;2023-03-12T05:54:51;-1.40;99.90
5304;DHT22;2674;49.722;10.892;2023-03-12T05:57:17;-1.40;99.90
5304;DHT22;2674;49.722;10.892;2023-03-12T05:59:43;-1.40;99.90
5304;DHT22;2674;49.722;10.892;2023-03-12T06:02:09;-1.40;99.90
5304;DHT22;2674;49.722;10.892;2023-03-12T06:04:35;-1.30;99.90
5304;DHT22;2674;49.722;10.892;2023-03-12T06:07:01;-1.30;99.90
5304;DHT22;2674;49.722;10.892;2023-03-12T06:09:27;-1.30;99.90
5304;DHT22;2674;49.722;10.892;2023-03-12T06:11:53;-1.30;99.90
5304;DHT22;2674;49.722;10.892;2023-03-12T06:14:19;-1.30;99.90
5304;DHT22;2674;49.722;10.892;2023-03-12T06:16:45;-1.30;99.90
5304;DHT22;2674;49.722;10.892;2023-03-12T06:19:11;-1.20;99.90
5304;DHT22;2674;49.722;10.892;2023-03-12T06:21:38;-1.20;99.90
5304;DHT22;2674;49.722;10.892;2023-03-12T06:24:05;-1.20;99.90
5304;DHT22;2674;49.722;10.892;2023-03-12T06:26:30;-1.10;99.90
5304;DHT22;2674;49.722;10.892;2023-03-12T06:28:56;-1.10;99.90
5304;DHT22;2674;49.722;10.892;2023-03-12T06:31:23;-1.00;99.90
5304;DHT22;2674;49.722;10.892;2023-03-12T06:33:49;-0.90;99.90
5304;DHT22;2674;49.722;10.892;2023-03-12T06:36:15;-0.80;99.90
5304;DHT22;2674;49.722;10.892;2023-03-12T06:38:41;-0.80;99.90
5304;DHT22;2674;49.722;10.892;2023-03-12T06:41:12;-0.70;99.90
5304;DHT22;2674;49.722;10.892;2023-03-12T06:43:39;-0.70;99.90
5304;DHT22;2674;49.722;10.892;2023-03-12T06:46:08;-0.60;99.90
5304;DHT22;2674;49.722;10.892;2023-03-12T06:48:36;-0.60;99.90
5304;DHT22;2674;49.722;10.892;2023-03-12T06:51:07;-0.50;99.90
5304;DHT22;2674;49.722;10.892;2023-03-12T06:53:33;-0.40;99.90
5304;DHT22;2674;49.722;10.892;2023-03-12T06:56:00;-0.30;99.90
5304;DHT22;2674;49.722;10.892;2023-03-12T06:58:26;-0.10;99.90
5304;DHT22;2674;49.722;10.892;2023-03-12T07:00:52;0.00;99.90
5304;DHT22;2674;49.722;10.892;2023-03-12T07:03:18;0.00;99.90
5304;DHT22;2674;49.722;10.892;2023-03-12T07:05:45;0.20;99.10
5304;DHT22;2674;49.722;10.892;2023-03-12T07:08:11;0.20;90.50
5304;DHT22;2674;49.722;10.892;2023-03-12T07:10:37;0.30;93.70
5304;DHT22;2674;49.722;10.892;2023-03-12T07:13:03;0.30;94.30
5304;DHT22;2674;49.722;10.892;2023-03-12T07:15:29;0.40;95.90
5304;DHT22;2674;49.722;10.892;2023-03-12T07:17:58;0.50;95.90
5304;DHT22;2674;49.722;10.892;2023-03-12T07:20:23;0.50;92.50
5304;DHT22;2674;49.722;10.892;2023-03-12T07:22:49;0.60;77.80
5304;DHT22;2674;49.722;10.892;2023-03-12T07:25:15;0.70;83.00
5304;DHT22;2674;49.722;10.892;2023-03-12T07:27:41;0.70;74.90
5304;DHT22;2674;49.722;10.892;2023-03-12T07:30:07;0.80;78.20
5304;DHT22;2674;49.722;10.892;2023-03-12T07:32:33;0.90;78.50
5304;DHT22;2674;49.722;10.892;2023-03-12T07:35:02;0.90;67.90
5304;DHT22;2674;49.722;10.892;2023-03-12T07:37:28;1.00;56.30
5304;DHT22;2674;49.722;10.892;2023-03-12T07:39:54;1.00;60.90
5304;DHT22;2674;49.722;10.892;2023-03-12T07:42:20;1.10;59.50
5304;DHT22;2674;49.722;10.892;2023-03-12T07:44:46;1.10;62.60
5304;DHT22;2674;49.722;10.892;2023-03-12T07:47:12;1.20;57.20
5304;DHT22;2674;49.722;10.892;2023-03-12T07:49:39;1.30;61.60
5304;DHT22;2674;49.722;10.892;2023-03-12T07:52:07;1.30;59.00
5304;DHT22;2674;49.722;10.892;2023-03-12T07:54:36;1.40;50.40
5304;DHT22;2674;49.722;10.892;2023-03-12T07:57:03;1.50;50.50
5304;DHT22;2674;49.722;10.892;2023-03-12T07:59:29;1.50;45.90
5304;DHT22;2674;49.722;10.892;2023-03-12T08:01:55;1.60;57.00
5304;DHT22;2674;49.722;10.892;2023-03-12T08:04:21;1.70;88.60
5304;DHT22;2674;49.722;10.892;2023-03-12T08:06:50;1.90;99.90
5304;DHT22;2674;49.722;10.892;2023-03-12T08:09:16;2.00;58.90
5304;DHT22;2674;49.722;10.892;2023-03-12T08:11:42;2.10;44.00
5304;DHT22;2674;49.722;10.892;2023-03-12T08:14:07;2.10;35.90
5304;DHT22;2674;49.722;10.892;2023-03-12T08:16:45;2.10;38.30
5304;DHT22;2674;49.722;10.892;2023-03-12T08:19:14;2.10;29.50
5304;DHT22;2674;49.722;10.892;2023-03-12T08:21:40;2.20;21.20
5304;DHT22;2674;49.722;10.892;2023-03-12T08:24:06;2.30;13.40
5304;DHT22;2674;49.722;10.892;2023-03-12T08:26:32;2.30;4.40
5304;DHT22;2674;49.722;10.892;2023-03-12T08:28:58;2.40;1.00
5304;DHT22;2674;49.722;10.892;2023-03-12T08:31:26;2.50;1.00
5304;DHT22;2674;49.722;10.892;2023-03-12T08:33:52;2.50;1.00
5304;DHT22;2674;49.722;10.892;2023-03-12T08:36:18;2.60;1.00
5304;DHT22;2674;49.722;10.892;2023-03-12T08:38:44;2.60;1.00
5304;DHT22;2674;49.722;10.892;2023-03-12T08:41:09;2.80;1.00
5304;DHT22;2674;49.722;10.892;2023-03-12T08:43:35;2.90;1.00
5304;DHT22;2674;49.722;10.892;2023-03-12T08:46:02;3.00;1.00
5304;DHT22;2674;49.722;10.892;2023-03-12T08:48:30;3.10;1.00
5304;DHT22;2674;49.722;10.892;2023-03-12T08:50:58;3.20;1.00
5304;DHT22;2674;49.722;10.892;2023-03-12T08:53:25;3.30;1.00
5304;DHT22;2674;49.722;10.892;2023-03-12T08:55:52;3.40;1.00
5304;DHT22;2674;49.722;10.892;2023-03-12T08:58:19;3.50;1.00
5304;DHT22;2674;49.722;10.892;2023-03-12T09:00:45;3.60;1.00
5304;DHT22;2674;49.722;10.892;2023-03-12T09:03:10;3.70;1.00
5304;DHT22;2674;49.722;10.892;2023-03-12T09:05:40;3.80;1.00
5304;DHT22;2674;49.722;10.892;2023-03-12T09:08:06;3.90;1.00
5304;DHT22;2674;49.722;10.892;2023-03-12T09:10:32;4.00;1.00
5304;DHT22;2674;49.722;10.892;2023-03-12T09:13:00;4.00;1.00
5304;DHT22;2674;49.722;10.892;2023-03-12T09:15:27;4.10;1.00
5304;DHT22;2674;49.722;10.892;2023-03-12T09:17:53;4.10;1.00
5304;DHT22;2674;49.722;10.892;2023-03-12T09:20:20;4.20;1.00
5304;DHT22;2674;49.722;10.892;2023-03-12T09:22:47;4.20;1.00
5304;DHT22;2674;49.722;10.892;2023-03-12T09:25:13;4.20;1.00
5304;DHT22;2674;49.722;10.892;2023-03-12T09:27:40;4.30;1.00
5304;DHT22;2674;49.722;10.892;2023-03-12T09:30:09;4.30;1.00
5304;DHT22;2674;49.722;10.892;2023-03-12T09:32:35;4.40;1.00
5304;DHT22;2674;49.722;10.892;2023-03-12T09:35:01;4.40;1.00
5304;DHT22;2674;49.722;10.892;2023-03-12T09:37:27;4.50;1.00
5304;DHT22;2674;49.722;10.892;2023-03-12T09:39:53;4.60;1.00
5304;DHT22;2674;49.722;10.892;2023-03-12T09:42:47;4.70;1.00
5304;DHT22;2674;49.722;10.892;2023-03-12T09:45:23;4.80;1.00
5304;DHT22;2674;49.722;10.892;2023-03-12T09:47:52;4.80;1.00
5304;DHT22;2674;49.722;10.892;2023-03-12T09:50:41;4.80;1.00
5304;DHT22;2674;49.722;10.892;2023-03-12T09:53:27;4.80;1.00
5304;DHT22;2674;49.722;10.892;2023-03-12T09:55:57;4.90;1.00
5304;DHT22;2674;49.722;10.892;2023-03-12T09:58:34;5.00;1.00
5304;DHT22;2674;49.722;10.892;2023-03-12T10:06:48;5.30;1.00
5304;DHT22;2674;49.722;10.892;2023-03-12T10:18:51;5.70;1.00
5304;DHT22;2674;49.722;10.892;2023-03-12T10:26:50;6.00;1.00
5304;DHT22;2674;49.722;10.892;2023-03-12T10:29:32;6.10;1.00
5304;DHT22;2674;49.722;10.892;2023-03-12T10:32:37;6.20;1.00
5304;DHT22;2674;49.722;10.892;2023-03-12T10:35:17;6.30;1.00
5304;DHT22;2674;49.722;10.892;2023-03-12T10:38:00;6.40;1.00
5304;DHT22;2674;49.722;10.892;2023-03-12T10:40:30;6.40;1.00
5304;DHT22;2674;49.722;10.892;2023-03-12T10:42:58;6.40;1.00
5304;DHT22;2674;49.722;10.892;2023-03-12T10:48:20;6.20;1.00
5304;DHT22;2674;49.722;10.892;2023-03-12T10:51:06;6.10;1.00
5304;DHT22;2674;49.722;10.892;2023-03-12T10:53:40;6.10;1.00
5304;DHT22;2674;49.722;10.892;2023-03-12T10:56:17;6.10;1.00
5304;DHT22;2674;49.722;10.892;2023-03-12T10:58:49;6.10;1.00
5304;DHT22;2674;49.722;10.892;2023-03-12T11:01:21;6.10;1.00
5304;DHT22;2674;49.722;10.892;2023-03-12T11:03:47;6.10;1.00
5304;DHT22;2674;49.722;10.892;2023-03-12T11:06:29;6.20;1.00
5304;DHT22;2674;49.722;10.892;2023-03-12T11:09:05;6.10;1.00
5304;DHT22;2674;49.722;10.892;2023-03-12T11:11:36;6.10;1.00
5304;DHT22;2674;49.722;10.892;2023-03-12T11:14:14;6.00;1.00
5304;DHT22;2674;49.722;10.892;2023-03-12T11:16:40;6.00;1.00
5304;DHT22;2674;49.722;10.892;2023-03-12T11:19:12;6.00;1.00
5304;DHT22;2674;49.722;10.892;2023-03-12T11:21:39;5.90;1.00
5304;DHT22;2674;49.722;10.892;2023-03-12T11:24:07;5.80;1.00
5304;DHT22;2674;49.722;10.892;2023-03-12T11:29:27;5.90;1.00
5304;DHT22;2674;49.722;10.892;2023-03-12T11:34:38;5.80;1.00
5304;DHT22;2674;49.722;10.892;2023-03-12T11:51:52;5.70;20.30
5304;DHT22;2674;49.722;10.892;2023-03-12T11:57:41;5.60;26.70
5304;DHT22;2674;49.722;10.892;2023-03-12T12:00:15;5.60;25.90
5304;DHT22;2674;49.722;10.892;2023-03-12T12:05:20;5.60;33.80
5304;DHT22;2674;49.722;10.892;2023-03-12T12:10:45;5.60;37.60
5304;DHT22;2674;49.722;10.892;2023-03-12T12:13:39;5.60;36.30
5304;DHT22;2674;49.722;10.892;2023-03-12T12:16:18;5.50;37.80
5304;DHT22;2674;49.722;10.892;2023-03-12T12:23:59;5.50;80.90
5304;DHT22;2674;49.722;10.892;2023-03-12T12:26:36;5.60;90.60
5304;DHT22;2674;49.722;10.892;2023-03-12T12:31:55;5.50;93.40
5304;DHT22;2674;49.722;10.892;2023-03-12T12:37:22;5.60;95.50
5304;DHT22;2674;49.722;10.892;2023-03-12T12:45:24;5.70;99.90
5304;DHT22;2674;49.722;10.892;2023-03-12T12:48:02;5.60;99.90
5304;DHT22;2674;49.722;10.892;2023-03-12T12:50:35;5.70;99.90
5304;DHT22;2674;49.722;10.892;2023-03-12T12:53:23;5.70;99.90
5304;DHT22;2674;49.722;10.892;2023-03-12T12:56:08;5.70;99.90
5304;DHT22;2674;49.722;10.892;2023-03-12T12:58:59;5.80;99.90
5304;DHT22;2674;49.722;10.892;2023-03-12T13:01:30;5.70;99.90
5304;DHT22;2674;49.722;10.892;2023-03-12T13:04:04;5.70;99.90
5304;DHT22;2674;49.722;10.892;2023-03-12T13:06:59;5.80;99.90
5304;DHT22;2674;49.722;10.892;2023-03-12T13:09:39;5.70;99.90
5304;DHT22;2674;49.722;10.892;2023-03-12T13:12:10;5.80;99.90
5304;DHT22;2674;49.722;10.892;2023-03-12T13:14:39;5.70;99.90
5304;DHT22;2674;49.722;10.892;2023-03-12T13:17:19;5.70;99.90
5304;DHT22;2674;49.722;10.892;2023-03-12T13:19:50;5.70;99.90
5304;DHT22;2674;49.722;10.892;2023-03-12T13:27:43;5.70;99.90
5304;DHT22;2674;49.722;10.892;2023-03-12T13:35:35;5.70;99.90
5304;DHT22;2674;49.722;10.892;2023-03-12T13:38:04;5.70;99.90
5304;DHT22;2674;49.722;10.892;2023-03-12T13:43:29;5.70;99.90
5304;DHT22;2674;49.722;10.892;2023-03-12T13:48:33;5.70;99.90
5304;DHT22;2674;49.722;10.892;2023-03-12T13:51:15;5.70;99.90
5304;DHT22;2674;49.722;10.892;2023-03-12T13:53:46;5.70;99.90
5304;DHT22;2674;49.722;10.892;2023-03-12T13:56:16;5.70;99.90
5304;DHT22;2674;49.722;10.892;2023-03-12T13:59:06;5.70;99.90
5304;DHT22;2674;49.722;10.892;2023-03-12T14:01:41;5.70;99.90
5304;DHT22;2674;49.722;10.892;2023-03-12T14:04:12;5.80;99.90
5304;DHT22;2674;49.722;10.892;2023-03-12T14:09:36;5.90;99.90
5304;DHT22;2674;49.722;10.892;2023-03-12T14:12:11;5.90;99.90
5304;DHT22;2674;49.722;10.892;2023-03-12T14:17:28;5.90;99.90
5304;DHT22;2674;49.722;10.892;2023-03-12T14:20:03;5.90;99.90
5304;DHT22;2674;49.722;10.892;2023-03-12T14:22:34;5.90;99.90
5304;DHT22;2674;49.722;10.892;2023-03-12T14:25:49;5.90;99.90
5304;DHT22;2674;49.722;10.892;2023-03-12T14:27:50;6.00;99.90
5304;DHT22;2674;49.722;10.892;2023-03-12T14:30:22;6.00;99.90
5304;DHT22;2674;49.722;10.892;2023-03-12T14:32:52;6.00;99.90
5304;DHT22;2674;49.722;10.892;2023-03-12T14:35:20;6.00;99.90
5304;DHT22;2674;49.722;10.892;2023-03-12T14:43:21;6.00;99.90
5304;DHT22;2674;49.722;10.892;2023-03-12T14:45:58;6.10;99.90
5304;DHT22;2674;49.722;10.892;2023-03-12T14:48:33;6.10;99.90
5304;DHT22;2674;49.722;10.892;2023-03-12T14:51:00;6.20;99.90
5304;DHT22;2674;49.722;10.892;2023-03-12T14:53:30;6.30;99.90
5304;DHT22;2674;49.722;10.892;2023-03-12T14:56:11;6.30;99.90
5304;DHT22;2674;49.722;10.892;2023-03-12T14:58:48;6.40;99.90
5304;DHT22;2674;49.722;10.892;2023-03-12T15:01:18;6.50;99.90
5304;DHT22;2674;49.722;10.892;2023-03-12T15:04:02;6.50;99.90
5304;DHT22;2674;49.722;10.892;2023-03-12T15:09:34;6.60;99.90
5304;DHT22;2674;49.722;10.892;2023-03-12T15:12:03;6.70;99.90
5304;DHT22;2674;49.722;10.892;2023-03-12T15:14:37;6.70;99.90
5304;DHT22;2674;49.722;10.892;2023-03-12T15:17:04;6.70;99.90
5304;DHT22;2674;49.722;10.892;2023-03-12T15:19:35;6.80;99.90
5304;DHT22;2674;49.722;10.892;2023-03-12T15:22:03;7.00;99.90
5304;DHT22;2674;49.722;10.892;2023-03-12T15:24:36;7.00;99.90
5304;DHT22;2674;49.722;10.892;2023-03-12T15:27:21;7.10;99.90
5304;DHT22;2674;49.722;10.892;2023-03-12T15:29:56;7.20;99.90
5304;DHT22;2674;49.722;10.892;2023-03-12T15:32:24;7.30;99.90
5304;DHT22;2674;49.722;10.892;2023-03-12T15:34:54;7.40;99.90
5304;DHT22;2674;49.722;10.892;2023-03-12T15:37:32;7.40;99.90
5304;DHT22;2674;49.722;10.892;2023-03-12T15:40:28;7.50;99.90
5304;DHT22;2674;49.722;10.892;2023-03-12T15:42:55;7.50;99.90
5304;DHT22;2674;49.722;10.892;2023-03-12T15:45:37;7.50;99.90
5304;DHT22;2674;49.722;10.892;2023-03-12T15:48:24;7.50;99.90
5304;DHT22;2674;49.722;10.892;2023-03-12T15:50:51;7.50;99.90
5304;DHT22;2674;49.722;10.892;2023-03-12T15:58:29;7.60;99.90
5304;DHT22;2674;49.722;10.892;2023-03-12T16:01:13;7.60;99.90
5304;DHT22;2674;49.722;10.892;2023-03-12T16:03:40;7.70;99.90
5304;DHT22;2674;49.722;10.892;2023-03-12T16:06:26;7.60;99.90
5304;DHT22;2674;49.722;10.892;2023-03-12T16:08:58;7.60;99.90
5304;DHT22;2674;49.722;10.892;2023-03-12T16:11:27;7.60;99.90
5304;DHT22;2674;49.722;10.892;2023-03-12T16:16:30;7.60;99.90
5304;DHT22;2674;49.722;10.892;2023-03-12T16:18:56;7.60;99.90
5304;DHT22;2674;49.722;10.892;2023-03-12T16:21:22;7.60;99.90
5304;DHT22;2674;49.722;10.892;2023-03-12T16:23:48;7.60;99.90
5304;DHT22;2674;49.722;10.892;2023-03-12T16:26:14;7.60;99.90
5304;DHT22;2674;49.722;10.892;2023-03-12T16:28:40;7.60;99.90
5304;DHT22;2674;49.722;10.892;2023-03-12T16:31:14;7.60;99.90
5304;DHT22;2674;49.722;10.892;2023-03-12T16:33:40;7.60;99.90
5304;DHT22;2674;49.722;10.892;2023-03-12T16:36:15;7.50;99.90
5304;DHT22;2674;49.722;10.892;2023-03-12T16:38:43;7.50;99.90
5304;DHT22;2674;49.722;10.892;2023-03-12T16:41:16;7.50;99.90
5304;DHT22;2674;49.722;10.892;2023-03-12T16:43:46;7.50;99.90
5304;DHT22;2674;49.722;10.892;2023-03-12T16:46:18;7.50;99.90
5304;DHT22;2674;49.722;10.892;2023-03-12T16:48:47;7.50;99.90
5304;DHT22;2674;49.722;10.892;2023-03-12T16:51:14;7.50;99.90
5304;DHT22;2674;49.722;10.892;2023-03-12T16:53:41;7.50;99.90
5304;DHT22;2674;49.722;10.892;2023-03-12T16:56:20;7.50;99.90
5304;DHT22;2674;49.722;10.892;2023-03-12T16:58:47;7.50;99.90
5304;DHT22;2674;49.722;10.892;2023-03-12T17:01:18;7.40;99.90
5304;DHT22;2674;49.722;10.892;2023-03-12T17:03:46;7.50;99.90
5304;DHT22;2674;49.722;10.892;2023-03-12T17:06:22;7.40;99.90
5304;DHT22;2674;49.722;10.892;2023-03-12T17:08:49;7.40;99.90
5304;DHT22;2674;49.722;10.892;2023-03-12T17:13:48;7.40;99.90
5304;DHT22;2674;49.722;10.892;2023-03-12T17:16:14;7.40;99.90
5304;DHT22;2674;49.722;10.892;2023-03-12T17:18:40;7.40;99.90
5304;DHT22;2674;49.722;10.892;2023-03-12T17:21:09;7.40;99.90
5304;DHT22;2674;49.722;10.892;2023-03-12T17:23:34;7.40;99.90
5304;DHT22;2674;49.722;10.892;2023-03-12T17:26:00;7.40;99.90
5304;DHT22;2674;49.722;10.892;2023-03-12T17:28:26;7.40;99.90
5304;DHT22;2674;49.722;10.892;2023-03-12T17:30:52;7.30;99.90
5304;DHT22;2674;49.722;10.892;2023-03-12T17:33:18;7.30;99.90
5304;DHT22;2674;49.722;10.892;2023-03-12T17:35:44;7.30;99.90
5304;DHT22;2674;49.722;10.892;2023-03-12T17:38:11;7.30;99.90
5304;DHT22;2674;49.722;10.892;2023-03-12T17:40:41;7.30;99.90
5304;DHT22;2674;49.722;10.892;2023-03-12T17:43:07;7.30;99.90
5304;DHT22;2674;49.722;10.892;2023-03-12T17:45:34;7.30;99.90
5304;DHT22;2674;49.722;10.892;2023-03-12T17:48:01;7.30;99.90
5304;DHT22;2674;49.722;10.892;2023-03-12T17:50:27;7.20;99.90
5304;DHT22;2674;49.722;10.892;2023-03-12T17:52:53;7.20;99.90
5304;DHT22;2674;49.722;10.892;2023-03-12T17:55:19;7.20;99.90
5304;DHT22;2674;49.722;10.892;2023-03-12T17:57:44;7.20;99.90
5304;DHT22;2674;49.722;10.892;2023-03-12T18:00:11;7.20;99.90
5304;DHT22;2674;49.722;10.892;2023-03-12T18:02:40;7.20;99.90
5304;DHT22;2674;49.722;10.892;2023-03-12T18:05:08;7.10;99.90
5304;DHT22;2674;49.722;10.892;2023-03-12T18:07:34;7.10;99.90